createdAt,value
2023-03-17T00:01:57.277Z,0.55
2023-03-17T00:04:59.578Z,0.38
2023-03-17T00:08:11.768Z,0.38
2023-03-17T00:11:16.182Z,1.30
2023-03-17T00:14:19.901Z,0.32
2023-03-17T00:17:22.196Z,0.30
2023-03-17T00:20:31.219Z,0.40
2023-03-17T00:23:35.332Z,0.43
2023-03-17T00:26:38.073Z,0.10
2023-03-17T00:29:40.767Z,0.20
2023-03-17T00:32:45.407Z,1.27
2023-03-17T00:35:48.362Z,0.57
2023-03-17T00:38:52.690Z,0.00
2023-03-17T00:41:55.085Z,0.10
2023-03-17T00:44:57.339Z,0.30
2023-03-17T00:47:59.841Z,0.10
2023-03-17T00:51:02.139Z,0.00
2023-03-17T00:54:04.520Z,0.08
2023-03-17T00:57:10.094Z,0.10
2023-03-17T01:00:27.431Z,0.20
2023-03-17T01:03:29.786Z,0.20
2023-03-17T01:06:32.060Z,0.13
2023-03-17T01:09:35.010Z,0.38
2023-03-17T01:12:37.434Z,0.00
2023-03-17T01:15:45.148Z,0.22
2023-03-17T01:18:47.559Z,0.00
2023-03-17T01:21:50.357Z,0.00
2023-03-17T01:24:52.882Z,0.00
2023-03-17T01:27:59.848Z,0.20
2023-03-17T01:31:02.952Z,0.00
2023-03-17T01:34:06.333Z,0.10
2023-03-17T01:37:09.760Z,0.47
2023-03-17T01:40:22.350Z,0.10
2023-03-17T01:43:28.234Z,0.30
2023-03-17T01:46:38.607Z,0.13
2023-03-17T01:49:42.302Z,0.00
2023-03-17T01:52:44.703Z,0.08
2023-03-17T01:55:49.444Z,0.25
2023-03-17T01:58:54.433Z,0.23
2023-03-17T02:02:02.977Z,0.00
2023-03-17T02:05:09.450Z,0.10
2023-03-17T02:08:14.074Z,0.52
2023-03-17T02:11:17.096Z,0.52
2023-03-17T02:14:20.499Z,0.00
2023-03-17T02:17:25.115Z,0.63
2023-03-17T02:20:27.716Z,0.45
2023-03-17T02:23:30.699Z,0.22
2023-03-17T02:26:35.516Z,0.03
2023-03-17T02:29:38.104Z,0.00
2023-03-17T02:32:40.484Z,0.20
2023-03-17T02:35:49.073Z,0.10
2023-03-17T02:38:52.312Z,0.20
2023-03-17T02:41:54.569Z,0.30
2023-03-17T02:44:57.560Z,0.17
2023-03-17T02:48:00.694Z,0.85
2023-03-17T02:51:03.778Z,0.22
2023-03-17T02:54:06.084Z,0.00
2023-03-17T02:57:08.804Z,0.10
2023-03-17T03:00:14.378Z,0.10
2023-03-17T03:03:16.667Z,0.03
2023-03-17T03:06:19.073Z,0.22
2023-03-17T03:09:21.511Z,0.00
2023-03-17T03:12:23.808Z,0.15
2023-03-17T03:15:26.110Z,0.47
2023-03-17T03:18:28.565Z,0.45
2023-03-17T03:21:30.792Z,0.05
2023-03-17T03:24:33.138Z,0.30
2023-03-17T03:27:36.153Z,0.05
2023-03-17T03:30:38.686Z,0.00
2023-03-17T03:33:41.918Z,0.22
2023-03-17T03:36:44.159Z,0.32
2023-03-17T03:39:46.505Z,0.00
2023-03-17T03:42:48.874Z,0.00
2023-03-17T03:45:51.776Z,0.40
2023-03-17T03:48:55.387Z,0.57
2023-03-17T03:51:57.595Z,0.00
2023-03-17T03:54:59.807Z,0.00
2023-03-17T03:58:02.072Z,0.20
2023-03-17T04:01:05.639Z,0.30
2023-03-17T04:04:07.995Z,0.00
2023-03-17T04:07:10.692Z,0.35
2023-03-17T04:10:15.347Z,0.00
2023-03-17T04:13:17.576Z,0.00
2023-03-17T04:16:19.832Z,0.27
2023-03-17T04:19:22.102Z,0.73
2023-03-17T04:22:24.647Z,0.50
2023-03-17T04:25:27.059Z,0.00
2023-03-17T04:28:29.273Z,0.40
2023-03-17T04:31:31.666Z,0.10
2023-03-17T04:34:33.904Z,0.32
2023-03-17T04:37:36.252Z,0.17
2023-03-17T04:40:39.284Z,0.00
2023-03-17T04:43:42.110Z,0.57
2023-03-17T04:46:44.402Z,0.27
2023-03-17T04:49:51.192Z,0.00
2023-03-17T04:52:53.794Z,0.40
2023-03-17T04:55:56.709Z,0.32
2023-03-17T04:58:58.944Z,0.10
2023-03-17T05:02:02.448Z,0.00
2023-03-17T05:05:05.615Z,0.00
2023-03-17T05:08:07.825Z,1.13
2023-03-17T05:11:10.078Z,0.28
2023-03-17T05:14:12.378Z,0.22
2023-03-17T05:17:15.041Z,0.00
2023-03-17T05:20:17.471Z,0.10
2023-03-17T05:23:19.933Z,0.20
2023-03-17T05:26:22.360Z,0.20
2023-03-17T05:29:24.704Z,0.22
2023-03-17T05:32:27.058Z,0.23
2023-03-17T05:35:29.443Z,0.17
2023-03-17T05:38:31.976Z,0.00
2023-03-17T05:41:34.328Z,0.55
2023-03-17T05:44:36.692Z,0.98
2023-03-17T05:47:39.017Z,0.67
2023-03-17T05:50:41.867Z,0.70
2023-03-17T05:53:44.210Z,0.73
2023-03-17T05:56:46.760Z,0.70
2023-03-17T05:59:49.112Z,1.17
2023-03-17T06:02:51.454Z,1.30
2023-03-17T06:05:53.751Z,0.65
2023-03-17T06:08:56.179Z,0.15
2023-03-17T06:11:58.442Z,1.00
2023-03-17T06:15:00.734Z,0.30
2023-03-17T06:18:05.230Z,0.40
2023-03-17T06:21:08.192Z,0.70
2023-03-17T06:24:10.564Z,0.63
2023-03-17T06:27:14.416Z,0.85
2023-03-17T06:30:16.985Z,1.85
2023-03-17T06:33:19.389Z,0.60
2023-03-17T06:36:21.825Z,0.55
2023-03-17T06:39:32.908Z,0.60
2023-03-17T06:42:35.631Z,0.98
2023-03-17T06:45:43.342Z,1.83
2023-03-17T06:48:45.578Z,1.00
2023-03-17T06:51:47.919Z,0.35
2023-03-17T06:54:50.361Z,1.50
2023-03-17T06:57:52.697Z,1.27
2023-03-17T07:00:55.826Z,1.23
2023-03-17T07:03:58.176Z,2.40
2023-03-17T07:07:00.376Z,1.15
2023-03-17T07:10:04.068Z,1.50
2023-03-17T07:13:10.546Z,1.38
2023-03-17T07:16:16.864Z,1.02
2023-03-17T07:19:22.819Z,1.20
2023-03-17T07:22:31.581Z,1.08
2023-03-17T07:25:39.820Z,1.17
2023-03-17T07:28:45.121Z,0.73
2023-03-17T07:31:57.572Z,1.02
2023-03-17T07:35:00.039Z,0.90
2023-03-17T07:38:03.055Z,1.35
2023-03-17T07:41:11.088Z,1.75
2023-03-17T07:44:14.346Z,1.58
2023-03-17T07:47:17.360Z,1.10
2023-03-17T07:50:20.752Z,1.40
2023-03-17T07:53:23.141Z,0.68
2023-03-17T07:56:27.852Z,0.93
2023-03-17T07:59:31.316Z,1.00
2023-03-17T08:02:33.737Z,1.27
2023-03-17T08:05:36.183Z,0.53
2023-03-17T08:08:47.302Z,0.65
2023-03-17T08:11:56.476Z,0.47
2023-03-17T08:14:59.433Z,0.38
2023-03-17T08:18:02.708Z,0.10
2023-03-17T08:21:11.230Z,0.40
2023-03-17T08:24:14.762Z,0.20
2023-03-17T08:27:24.502Z,0.73
2023-03-17T08:30:27.569Z,0.35
2023-03-17T08:33:30.175Z,0.20
2023-03-17T08:36:33.093Z,0.20
2023-03-17T08:39:35.450Z,0.32
2023-03-17T08:42:37.779Z,0.30
2023-03-17T08:45:40.755Z,0.30
2023-03-17T08:48:48.262Z,0.90
2023-03-17T08:51:50.538Z,0.20
2023-03-17T08:54:53.456Z,0.20
2023-03-17T08:57:56.168Z,0.28
2023-03-17T09:01:02.932Z,0.15
2023-03-17T09:04:06.108Z,0.25
2023-03-17T09:07:10.479Z,0.20
2023-03-17T09:10:16.563Z,0.20
2023-03-17T09:13:19.215Z,0.22
2023-03-17T09:16:24.009Z,0.40
2023-03-17T09:19:27.144Z,0.35
2023-03-17T09:22:29.718Z,0.33
2023-03-17T09:25:32.243Z,0.28
2023-03-17T09:28:34.991Z,0.30
2023-03-17T09:31:39.784Z,0.20
2023-03-17T09:34:42.162Z,0.20
2023-03-17T09:37:44.431Z,0.20
2023-03-17T09:41:19.951Z,0.30
2023-03-17T09:44:59.663Z,0.57
2023-03-17T09:48:27.363Z,0.20
2023-03-17T09:51:33.771Z,0.20
2023-03-17T09:54:39.343Z,0.33
2023-03-17T09:57:43.905Z,0.30
2023-03-17T10:00:46.633Z,0.65
2023-03-17T10:03:51.034Z,0.20
2023-03-17T10:07:03.732Z,0.25
2023-03-17T10:10:15.136Z,0.30
2023-03-17T10:13:20.021Z,0.40
2023-03-17T10:16:34.702Z,0.10
2023-03-17T10:19:44.558Z,0.10
2023-03-17T10:23:03.209Z,0.25
2023-03-17T10:26:09.657Z,0.27
2023-03-17T10:29:16.383Z,0.22
2023-03-17T10:32:18.749Z,0.60
2023-03-17T10:35:23.529Z,0.43
2023-03-17T10:38:26.903Z,0.30
2023-03-17T10:41:31.406Z,0.70
2023-03-17T10:44:57.689Z,0.70
2023-03-17T10:48:02.688Z,1.00
2023-03-17T10:51:10.126Z,0.65
2023-03-17T10:54:28.921Z,0.65
2023-03-17T10:57:32.586Z,0.70
2023-03-17T11:00:38.621Z,0.40
2023-03-17T11:03:41.607Z,0.70
2023-03-17T11:06:51.670Z,0.45
2023-03-17T11:10:02.678Z,0.63
2023-03-17T11:13:08.063Z,0.87
2023-03-17T11:16:22.183Z,0.43
2023-03-17T11:19:50.180Z,0.60
2023-03-17T11:23:04.953Z,0.52
2023-03-17T11:26:33.119Z,0.45
2023-03-17T11:29:40.591Z,0.70
2023-03-17T11:33:08.059Z,0.70
2023-03-17T11:36:39.687Z,0.60
2023-03-17T11:39:50.922Z,0.32
2023-03-17T11:43:11.690Z,0.60
2023-03-17T11:46:40.210Z,0.50
2023-03-17T11:49:46.018Z,0.70
2023-03-17T11:52:58.120Z,0.68
2023-03-17T11:56:19.095Z,0.70
2023-03-17T11:59:53.178Z,0.50
2023-03-17T12:03:11.103Z,0.60
2023-03-17T12:06:20.650Z,1.05
2023-03-17T12:09:30.828Z,0.82
2023-03-17T12:12:46.299Z,0.60
2023-03-17T12:16:06.168Z,0.30
2023-03-17T12:19:35.250Z,0.83
2023-03-17T12:23:13.022Z,0.80
2023-03-17T12:27:11.055Z,0.50
2023-03-17T12:30:27.535Z,0.60
2023-03-17T12:34:06.471Z,0.47
2023-03-17T12:37:10.988Z,0.33
2023-03-17T12:40:20.337Z,0.82
2023-03-17T12:43:28.441Z,0.90
2023-03-17T12:46:40.619Z,0.75
2023-03-17T12:50:07.555Z,0.60
2023-03-17T12:53:29.728Z,0.60
2023-03-17T12:56:33.851Z,0.52
2023-03-17T12:59:36.581Z,0.60
2023-03-17T13:02:39.853Z,0.80
2023-03-17T13:05:47.408Z,0.75
2023-03-17T13:08:51.805Z,0.60
2023-03-17T13:11:54.685Z,0.73
2023-03-17T13:14:58.837Z,0.57
2023-03-17T13:18:16.752Z,0.50
2023-03-17T13:21:25.424Z,0.38
2023-03-17T13:25:14.747Z,0.67
2023-03-17T13:28:25.782Z,0.50
2023-03-17T13:31:29.228Z,0.55
2023-03-17T13:34:46.390Z,0.45
2023-03-17T13:37:57.429Z,0.60
2023-03-17T13:41:18.027Z,0.50
2023-03-17T13:44:41.423Z,0.73
2023-03-17T13:47:45.931Z,0.60
2023-03-17T13:50:48.257Z,0.60
2023-03-17T13:54:21.367Z,0.65
2023-03-17T13:57:35.652Z,0.40
2023-03-17T14:00:44.348Z,0.73
2023-03-17T14:03:49.392Z,0.65
2023-03-17T14:06:54.556Z,0.50
2023-03-17T14:10:00.025Z,0.68
2023-03-17T14:13:22.632Z,0.50
2023-03-17T14:16:30.123Z,0.70
2023-03-17T14:19:32.524Z,0.38
2023-03-17T14:22:45.155Z,0.50
2023-03-17T14:25:48.106Z,0.52
2023-03-17T14:28:50.532Z,0.47
2023-03-17T14:32:02.429Z,0.40
2023-03-17T14:35:05.245Z,0.40
2023-03-17T14:38:37.986Z,0.55
2023-03-17T14:41:40.254Z,0.32
2023-03-17T14:44:43.682Z,0.20
2023-03-17T14:47:46.074Z,0.40
2023-03-17T14:50:55.117Z,0.28
2023-03-17T14:54:01.031Z,0.65
2023-03-17T14:57:07.313Z,0.35
2023-03-17T15:00:34.165Z,0.33
2023-03-17T15:03:51.959Z,0.30
2023-03-17T15:06:56.944Z,0.60
2023-03-17T15:10:02.202Z,0.30
2023-03-17T15:13:06.414Z,0.60
2023-03-17T15:16:37.030Z,0.20
2023-03-17T15:19:43.005Z,0.45
2023-03-17T15:22:48.650Z,0.30
2023-03-17T15:25:56.400Z,0.20
2023-03-17T15:29:00.535Z,0.20
2023-03-17T15:32:20.028Z,0.50
2023-03-17T15:35:22.238Z,0.20
2023-03-17T15:38:24.972Z,0.52
2023-03-17T15:41:27.208Z,0.38
2023-03-17T15:44:30.014Z,0.40
2023-03-17T15:47:34.200Z,0.20
2023-03-17T15:50:36.711Z,1.15
2023-03-17T15:53:39.018Z,0.22
2023-03-17T15:56:43.332Z,0.50
2023-03-17T15:59:45.500Z,0.47
2023-03-17T16:02:50.858Z,0.23
2023-03-17T16:05:54.399Z,0.50
2023-03-17T16:08:56.701Z,0.22
2023-03-17T16:11:58.919Z,0.40
2023-03-17T16:15:05.411Z,0.63
2023-03-17T16:18:18.222Z,0.20
2023-03-17T16:21:20.857Z,0.70
2023-03-17T16:24:25.278Z,0.10
2023-03-17T16:27:27.600Z,0.57
2023-03-17T16:30:34.427Z,0.22
2023-03-17T16:33:40.003Z,0.20
2023-03-17T16:36:43.922Z,0.10
2023-03-17T16:39:46.240Z,0.10
2023-03-17T16:42:48.921Z,0.32
2023-03-17T16:45:52.688Z,0.52
2023-03-17T16:48:56.233Z,1.33
2023-03-17T16:51:58.505Z,1.35
2023-03-17T16:55:00.744Z,0.95
2023-03-17T16:58:17.579Z,3.25
2023-03-17T17:01:22.547Z,7.10
2023-03-17T17:04:25.220Z,4.27
2023-03-17T17:07:27.839Z,2.33
2023-03-17T17:10:32.587Z,1.42
2023-03-17T17:13:34.965Z,1.92
2023-03-17T17:16:39.999Z,2.38
2023-03-17T17:19:42.325Z,2.27
2023-03-17T17:22:44.867Z,0.75
2023-03-17T17:25:47.888Z,2.33
2023-03-17T17:28:50.473Z,1.67
2023-03-17T17:31:52.767Z,0.88
2023-03-17T17:34:55.629Z,1.13
2023-03-17T17:37:57.919Z,1.30
2023-03-17T17:41:05.809Z,1.33
2023-03-17T17:44:08.008Z,0.77
2023-03-17T17:47:11.688Z,0.75
2023-03-17T17:50:24.666Z,0.63
2023-03-17T17:53:27.051Z,0.68
2023-03-17T17:56:29.302Z,0.55
2023-03-17T17:59:31.688Z,0.68
2023-03-17T18:02:33.963Z,1.65
2023-03-17T18:05:36.973Z,0.40
2023-03-17T18:08:39.626Z,3.33
2023-03-17T18:11:42.720Z,2.40
2023-03-17T18:14:44.957Z,1.00
2023-03-17T18:17:47.440Z,0.80
2023-03-17T18:20:50.025Z,0.77
2023-03-17T18:23:55.205Z,0.52
2023-03-17T18:26:57.423Z,1.42
2023-03-17T18:30:00.802Z,1.13
2023-03-17T18:33:12.489Z,1.52
2023-03-17T18:36:14.833Z,1.50
2023-03-17T18:39:17.211Z,2.38
2023-03-17T18:42:19.631Z,0.82
2023-03-17T18:45:21.849Z,0.30
2023-03-17T18:48:24.220Z,0.50
2023-03-17T18:51:26.400Z,0.57
2023-03-17T18:54:28.923Z,0.52
2023-03-17T18:57:31.304Z,0.10
2023-03-17T19:00:34.284Z,0.40
2023-03-17T19:03:36.586Z,0.17
2023-03-17T19:06:39.727Z,0.20
2023-03-17T19:09:42.431Z,0.20
2023-03-17T19:12:47.865Z,1.80
2023-03-17T19:15:50.088Z,0.30
2023-03-17T19:18:52.727Z,1.38
2023-03-17T19:21:54.937Z,0.23
2023-03-17T19:24:57.194Z,0.43
2023-03-17T19:27:59.643Z,0.20
2023-03-17T19:31:02.092Z,1.13
2023-03-17T19:34:04.304Z,0.45
2023-03-17T19:37:06.586Z,0.47
2023-03-17T19:40:13.087Z,0.32
2023-03-17T19:43:28.828Z,0.57
2023-03-17T19:46:38.464Z,0.75
2023-03-17T19:49:41.934Z,0.40
2023-03-17T19:52:45.997Z,0.93
2023-03-17T19:55:48.270Z,0.30
2023-03-17T19:58:51.315Z,0.40
2023-03-17T20:01:53.659Z,0.35
2023-03-17T20:04:56.173Z,0.28
2023-03-17T20:07:58.457Z,0.13
2023-03-17T20:11:00.807Z,0.20
2023-03-17T20:14:03.859Z,1.13
2023-03-17T20:17:06.118Z,0.75
2023-03-17T20:20:10.688Z,0.38
2023-03-17T20:23:13.909Z,1.23
2023-03-17T20:26:16.159Z,0.82
2023-03-17T20:29:18.443Z,1.42
2023-03-17T20:32:21.131Z,0.43
2023-03-17T20:35:24.787Z,0.63
2023-03-17T20:38:27.253Z,0.87
2023-03-17T20:41:29.580Z,2.30
2023-03-17T20:44:31.897Z,0.68
2023-03-17T20:47:34.800Z,0.65
2023-03-17T20:50:38.426Z,0.85
2023-03-17T20:53:40.591Z,0.70
2023-03-17T20:56:42.876Z,0.85
2023-03-17T20:59:45.249Z,1.33
2023-03-17T21:02:50.639Z,1.02
2023-03-17T21:05:53.514Z,0.20
2023-03-17T21:08:55.817Z,0.47
2023-03-17T21:11:58.030Z,1.13
2023-03-17T21:15:00.810Z,0.22
2023-03-17T21:18:03.300Z,0.43
2023-03-17T21:21:05.817Z,0.63
2023-03-17T21:24:09.510Z,0.40
2023-03-17T21:27:12.717Z,0.82
2023-03-17T21:30:15.791Z,0.68
2023-03-17T21:33:18.195Z,1.15
2023-03-17T21:36:21.299Z,0.70
2023-03-17T21:39:24.830Z,0.67
2023-03-17T21:42:27.842Z,0.88
2023-03-17T21:45:30.285Z,0.95
2023-03-17T21:48:32.506Z,0.60
2023-03-17T21:51:35.225Z,0.60
2023-03-17T21:54:37.535Z,0.97
2023-03-17T21:57:39.873Z,1.15
2023-03-17T22:00:45.696Z,1.13
2023-03-17T22:03:49.136Z,0.75
2023-03-17T22:06:52.270Z,0.47
2023-03-17T22:09:57.155Z,0.57
2023-03-17T22:12:59.373Z,0.40
2023-03-17T22:16:02.261Z,0.80
2023-03-17T22:19:04.558Z,0.55
2023-03-17T22:22:06.850Z,1.10
2023-03-17T22:25:09.254Z,1.03
2023-03-17T22:28:11.563Z,0.15
2023-03-17T22:31:25.682Z,0.45
2023-03-17T22:34:28.141Z,0.00
2023-03-17T22:37:30.360Z,0.30
2023-03-17T22:40:33.649Z,0.43
2023-03-17T22:43:36.776Z,0.93
2023-03-17T22:46:40.954Z,0.65
2023-03-17T22:49:43.226Z,1.10
2023-03-17T22:52:45.546Z,0.20
2023-03-17T22:55:47.743Z,0.20
2023-03-17T22:58:50.092Z,0.20
2023-03-17T23:01:52.445Z,0.15
2023-03-17T23:04:54.745Z,0.25
2023-03-17T23:07:57.583Z,0.35
2023-03-17T23:11:01.254Z,0.27
2023-03-17T23:14:04.458Z,0.08
2023-03-17T23:17:09.285Z,0.22
2023-03-17T23:20:13.687Z,0.28
2023-03-17T23:23:16.420Z,0.55
2023-03-17T23:26:19.065Z,0.40
2023-03-17T23:29:21.526Z,0.63
2023-03-17T23:32:23.737Z,0.17
2023-03-17T23:35:26.097Z,0.30
2023-03-17T23:38:28.740Z,0.52
2023-03-17T23:41:31.084Z,0.50
2023-03-17T23:44:33.850Z,0.25
2023-03-17T23:47:36.784Z,0.20
2023-03-17T23:50:40.418Z,0.45
2023-03-17T23:53:42.988Z,0.57
2023-03-17T23:56:45.613Z,0.23
2023-03-17T23:59:54.895Z,0.77
